sensor_id;sensor_type;location;lat;lon;timestamp;pressure;altitude;pressure_sealevel;temperature;humidity
68891;BME280;55932;48.702;8.884;2023-02-28T00:07:59;96710;;;-3.9;68
68891;BME280;55932;48.702;8.884;2023-02-28T00:10:30;96710;;;-3.9;68
68891;BME280;55932;48.702;8.884;2023-02-28T00:13:02;96720;;;-3.9;68
68891;BME280;55932;48.702;8.884;2023-02-28T00:15:33;96710;;;-3.9;68
68891;BME280;55932;48.702;8.884;2023-02-28T00:23:03;96710;;;-4;68
68891;BME280;55932;48.702;8.884;2023-02-28T00:25:34;96710;;;-4.2;68.5
68891;BME280;55932;48.702;8.884;2023-02-28T00:31:01;96710;;;-4.2;68.5
68891;BME280;55932;48.702;8.884;2023-02-28T00:33:18;96710;;;-4.2;68.5
68891;BME280;55932;48.702;8.884;2023-02-28T00:35:48;96710;;;-4.2;68.5
68891;BME280;55932;48.702;8.884;2023-02-28T00:38:18;96710;;;-4.2;68.5
68891;BME280;55932;48.702;8.884;2023-02-28T00:43:12;96710;;;-4.2;68
68891;BME280;55932;48.702;8.884;2023-02-28T00:45:43;96710;;;-4.2;68
68891;BME280;55932;48.702;8.884;2023-02-28T00:48:21;96710;;;-4.2;68.5
68891;BME280;55932;48.702;8.884;2023-02-28T00:55:53;96700;;;-4.3;68.5
68891;BME280;55932;48.702;8.884;2023-02-28T00:58:24;96700;;;-4.3;68
68891;BME280;55932;48.702;8.884;2023-02-28T01:03:18;96700;;;-4.3;68
68891;BME280;55932;48.702;8.884;2023-02-28T01:08:26;96700;;;-4.4;68.5
68891;BME280;55932;48.702;8.884;2023-02-28T01:15:59;96700;;;-4.4;68
68891;BME280;55932;48.702;8.884;2023-02-28T01:18:29;96700;;;-4.4;68.5
68891;BME280;55932;48.702;8.884;2023-02-28T01:20:52;96700;;;-4.3;68
68891;BME280;55932;48.702;8.884;2023-02-28T01:23:30;96700;;;-4.3;68
68891;BME280;55932;48.702;8.884;2023-02-28T01:26:03;96690;;;-4.3;68
68891;BME280;55932;48.702;8.884;2023-02-28T01:28:26;96690;;;-4.4;68
68891;BME280;55932;48.702;8.884;2023-02-28T01:33:21;96690;;;-4.4;68
68891;BME280;55932;48.702;8.884;2023-02-28T01:35:59;96700;;;-4.3;68
68891;BME280;55932;48.702;8.884;2023-02-28T01:38:22;96690;;;-4.3;68
68891;BME280;55932;48.702;8.884;2023-02-28T01:40:53;96690;;;-4.4;68
68891;BME280;55932;48.702;8.884;2023-02-28T01:43:25;96690;;;-4.4;68
68891;BME280;55932;48.702;8.884;2023-02-28T01:53:34;96680;;;-4.4;68
68891;BME280;55932;48.702;8.884;2023-02-28T01:56:04;96680;;;-4.4;68
68891;BME280;55932;48.702;8.884;2023-02-28T01:58:35;96680;;;-4.4;68
68891;BME280;55932;48.702;8.884;2023-02-28T02:03:30;96670;;;-4.5;68
68891;BME280;55932;48.702;8.884;2023-02-28T02:06:00;96670;;;-4.5;68
68891;BME280;55932;48.702;8.884;2023-02-28T02:08:31;96670;;;-4.5;68
68891;BME280;55932;48.702;8.884;2023-02-28T02:11:02;96670;;;-4.6;68
68891;BME280;55932;48.702;8.884;2023-02-28T02:18:40;96660;;;-4.6;68.5
68891;BME280;55932;48.702;8.884;2023-02-28T02:22:12;96660;;;-4.7;68.5
68891;BME280;55932;48.702;8.884;2023-02-28T02:23:50;96670;;;-4.7;68.5
68891;BME280;55932;48.702;8.884;2023-02-28T02:26:18;96660;;;-4.7;68.5
68891;BME280;55932;48.702;8.884;2023-02-28T02:29:20;96660;;;-4.6;68.5
68891;BME280;55932;48.702;8.884;2023-02-28T02:31:27;96660;;;-4.6;68.5
68891;BME280;55932;48.702;8.884;2023-02-28T02:33:46;96660;;;-4.5;68.5
68891;BME280;55932;48.702;8.884;2023-02-28T02:36:13;96650;;;-4.4;68
68891;BME280;55932;48.702;8.884;2023-02-28T02:38:44;96650;;;-4.4;68
68891;BME280;55932;48.702;8.884;2023-02-28T02:48:43;96660;;;-4.3;68
68891;BME280;55932;48.702;8.884;2023-02-28T02:51:15;96660;;;-4.3;68
68891;BME280;55932;48.702;8.884;2023-02-28T02:53:46;96660;;;-4.3;68
68891;BME280;55932;48.702;8.884;2023-02-28T02:56:17;96660;;;-4.4;68
68891;BME280;55932;48.702;8.884;2023-02-28T02:58:47;96660;;;-4.4;68
68891;BME280;55932;48.702;8.884;2023-02-28T03:01:18;96660;;;-4.4;68
68891;BME280;55932;48.702;8.884;2023-02-28T03:06:25;96660;;;-4.3;68
68891;BME280;55932;48.702;8.884;2023-02-28T03:08:56;96660;;;-4.2;68
68891;BME280;55932;48.702;8.884;2023-02-28T03:11:34;96670;;;-4.2;68
68891;BME280;55932;48.702;8.884;2023-02-28T03:14:09;96660;;;-4.1;68
68891;BME280;55932;48.702;8.884;2023-02-28T03:16:32;96660;;;-4;68
68891;BME280;55932;48.702;8.884;2023-02-28T03:21:27;96660;;;-3.8;67.5
68891;BME280;55932;48.702;8.884;2023-02-28T03:23:59;96650;;;-3.7;67.5
68891;BME280;55932;48.702;8.884;2023-02-28T03:26:26;96660;;;-3.7;67.5
68891;BME280;55932;48.702;8.884;2023-02-28T03:29:02;96650;;;-3.6;67.5
68891;BME280;55932;48.702;8.884;2023-02-28T03:31:28;96660;;;-3.6;67.5
68891;BME280;55932;48.702;8.884;2023-02-28T03:34:04;96650;;;-3.6;67.5
68891;BME280;55932;48.702;8.884;2023-02-28T03:44:10;96650;;;-3.7;67.5
68891;BME280;55932;48.702;8.884;2023-02-28T03:46:38;96640;;;-3.7;67.5
68891;BME280;55932;48.702;8.884;2023-02-28T03:49:11;96640;;;-3.7;67.5
68891;BME280;55932;48.702;8.884;2023-02-28T03:51:40;96650;;;-3.6;67.5
68891;BME280;55932;48.702;8.884;2023-02-28T03:56:37;96650;;;-3.5;67.5
68891;BME280;55932;48.702;8.884;2023-02-28T04:01:38;96650;;;-3.4;67.5
68891;BME280;55932;48.702;8.884;2023-02-28T04:04:07;96650;;;-3.4;67.5
68891;BME280;55932;48.702;8.884;2023-02-28T04:06:38;96650;;;-3.4;67.5
68891;BME280;55932;48.702;8.884;2023-02-28T04:09:09;96650;;;-3.4;67.5
68891;BME280;55932;48.702;8.884;2023-02-28T04:11:40;96650;;;-3.4;67.5
68891;BME280;55932;48.702;8.884;2023-02-28T04:14:12;96650;;;-3.4;67.5
68891;BME280;55932;48.702;8.884;2023-02-28T04:16:41;96650;;;-3.4;67.5
68891;BME280;55932;48.702;8.884;2023-02-28T04:19:12;96660;;;-3.3;67.5
68891;BME280;55932;48.702;8.884;2023-02-28T04:21:44;96650;;;-3.3;67.5
68891;BME280;55932;48.702;8.884;2023-02-28T04:24:14;96650;;;-3.3;67.5
68891;BME280;55932;48.702;8.884;2023-02-28T04:31:46;96650;;;-3.2;67.5
68891;BME280;55932;48.702;8.884;2023-02-28T04:36:53;96650;;;-3.2;67.5
68891;BME280;55932;48.702;8.884;2023-02-28T04:39:24;96650;;;-3.1;67
68891;BME280;55932;48.702;8.884;2023-02-28T04:41:55;96650;;;-3.1;67
68891;BME280;55932;48.702;8.884;2023-02-28T04:44:26;96650;;;-3.1;67
68891;BME280;55932;48.702;8.884;2023-02-28T04:46:57;96650;;;-3.1;67.5
68891;BME280;55932;48.702;8.884;2023-02-28T04:49:28;96650;;;-3.1;67.5
68891;BME280;55932;48.702;8.884;2023-02-28T04:51:59;96640;;;-3;67.5
68891;BME280;55932;48.702;8.884;2023-02-28T04:59:25;96640;;;-3;67
68891;BME280;55932;48.702;8.884;2023-02-28T05:01:56;96650;;;-3;67
68891;BME280;55932;48.702;8.884;2023-02-28T05:04:26;96640;;;-3;67
68891;BME280;55932;48.702;8.884;2023-02-28T05:06:57;96650;;;-3;67
68891;BME280;55932;48.702;8.884;2023-02-28T05:09:28;96640;;;-2.9;67
68891;BME280;55932;48.702;8.884;2023-02-28T05:14:35;96650;;;-2.9;67
68891;BME280;55932;48.702;8.884;2023-02-28T05:17:07;96660;;;-2.9;67
68891;BME280;55932;48.702;8.884;2023-02-28T05:19:37;96650;;;-2.9;67
68891;BME280;55932;48.702;8.884;2023-02-28T05:27:03;96650;;;-2.8;67
68891;BME280;55932;48.702;8.884;2023-02-28T05:29:34;96650;;;-2.8;67
68891;BME280;55932;48.702;8.884;2023-02-28T05:32:04;96660;;;-2.8;67
68891;BME280;55932;48.702;8.884;2023-02-28T05:34:35;96660;;;-2.8;67
68891;BME280;55932;48.702;8.884;2023-02-28T05:37:06;96650;;;-2.8;67
68891;BME280;55932;48.702;8.884;2023-02-28T05:39:43;96650;;;-2.8;67
68891;BME280;55932;48.702;8.884;2023-02-28T05:42:14;96660;;;-2.8;67
68891;BME280;55932;48.702;8.884;2023-02-28T05:47:09;96660;;;-2.8;67
68891;BME280;55932;48.702;8.884;2023-02-28T05:49:41;96660;;;-2.8;67
68891;BME280;55932;48.702;8.884;2023-02-28T05:57:13;96660;;;-2.7;67
68891;BME280;55932;48.702;8.884;2023-02-28T05:59:43;96660;;;-2.7;67
68891;BME280;55932;48.702;8.884;2023-02-28T06:02:15;96650;;;-2.7;67
68891;BME280;55932;48.702;8.884;2023-02-28T06:04:45;96650;;;-2.7;67
68891;BME280;55932;48.702;8.884;2023-02-28T06:07:15;96650;;;-2.7;67
68891;BME280;55932;48.702;8.884;2023-02-28T06:09:53;96660;;;-2.7;67
68891;BME280;55932;48.702;8.884;2023-02-28T06:12:24;96650;;;-2.7;67
68891;BME280;55932;48.702;8.884;2023-02-28T06:17:19;96650;;;-2.7;67
68891;BME280;55932;48.702;8.884;2023-02-28T06:19:50;96670;;;-2.7;67
68891;BME280;55932;48.702;8.884;2023-02-28T06:27:22;96670;;;-2.7;67
68891;BME280;55932;48.702;8.884;2023-02-28T06:32:22;96690;;;-2.7;67
68891;BME280;55932;48.702;8.884;2023-02-28T06:37:31;96690;;;-2.6;67
68891;BME280;55932;48.702;8.884;2023-02-28T06:40:01;96680;;;-2.6;67
68891;BME280;55932;48.702;8.884;2023-02-28T06:42:32;96680;;;-2.6;67
68891;BME280;55932;48.702;8.884;2023-02-28T06:44:56;96690;;;-2.6;67
68891;BME280;55932;48.702;8.884;2023-02-28T06:54:59;96690;;;-2.5;67
68891;BME280;55932;48.702;8.884;2023-02-28T06:57:30;96690;;;-2.5;67
68891;BME280;55932;48.702;8.884;2023-02-28T07:00:01;96700;;;-2.4;67
68891;BME280;55932;48.702;8.884;2023-02-28T07:02:32;96690;;;-2.4;67
68891;BME280;55932;48.702;8.884;2023-02-28T07:05:02;96700;;;-2.3;67
68891;BME280;55932;48.702;8.884;2023-02-28T07:07:33;96690;;;-2.2;67
68891;BME280;55932;48.702;8.884;2023-02-28T07:10:04;96700;;;-2.2;67
68891;BME280;55932;48.702;8.884;2023-02-28T07:12:34;96700;;;-2.1;67
68891;BME280;55932;48.702;8.884;2023-02-28T07:20:07;96700;;;-2;67
68891;BME280;55932;48.702;8.884;2023-02-28T07:22:37;96710;;;-2;66.5
68891;BME280;55932;48.702;8.884;2023-02-28T07:27:45;96710;;;-2;66.5
68891;BME280;55932;48.702;8.884;2023-02-28T07:30:16;96710;;;-1.9;66.5
68891;BME280;55932;48.702;8.884;2023-02-28T07:35:11;96710;;;-1.8;66.5
68891;BME280;55932;48.702;8.884;2023-02-28T07:37:42;96710;;;-1.8;66.5
68891;BME280;55932;48.702;8.884;2023-02-28T07:40:13;96710;;;-1.8;66.5
68891;BME280;55932;48.702;8.884;2023-02-28T07:50:16;96700;;;-1.8;66.5
68891;BME280;55932;48.702;8.884;2023-02-28T07:52:47;96700;;;-1.7;66.5
68891;BME280;55932;48.702;8.884;2023-02-28T07:58:00;96710;;;-1.7;66.5
68891;BME280;55932;48.702;8.884;2023-02-28T08:00:33;96720;;;-1.7;66.5
68891;BME280;55932;48.702;8.884;2023-02-28T08:05:25;96720;;;-1.6;66.5
68891;BME280;55932;48.702;8.884;2023-02-28T08:07:56;96720;;;-1.6;67
68891;BME280;55932;48.702;8.884;2023-02-28T08:10:37;96720;;;-1.6;66.5
68891;BME280;55932;48.702;8.884;2023-02-28T08:20:48;96730;;;-1.5;66.5
68891;BME280;55932;48.702;8.884;2023-02-28T08:23:06;96720;;;-1.4;66.5
68891;BME280;55932;48.702;8.884;2023-02-28T08:25:36;96720;;;-1.4;66.5
68891;BME280;55932;48.702;8.884;2023-02-28T08:28:06;96720;;;-1.4;66.5
68891;BME280;55932;48.702;8.884;2023-02-28T08:30:36;96720;;;-1.4;66.5
68891;BME280;55932;48.702;8.884;2023-02-28T08:35:30;96720;;;-1.3;66.5
68891;BME280;55932;48.702;8.884;2023-02-28T08:38:01;96730;;;-1.2;66.5
68891;BME280;55932;48.702;8.884;2023-02-28T08:40:32;96730;;;-1.1;66.5
68891;BME280;55932;48.702;8.884;2023-02-28T08:43:03;96730;;;-1.1;66.5
68891;BME280;55932;48.702;8.884;2023-02-28T08:45:41;96730;;;-1.2;66.5
68891;BME280;55932;48.702;8.884;2023-02-28T08:53:26;96740;;;-1.1;66.5
68891;BME280;55932;48.702;8.884;2023-02-28T08:55:43;96740;;;-1.1;66.5
68891;BME280;55932;48.702;8.884;2023-02-28T09:00:37;96750;;;-1.1;66.5
68891;BME280;55932;48.702;8.884;2023-02-28T09:03:09;96750;;;-1.1;66.5
68891;BME280;55932;48.702;8.884;2023-02-28T09:05:39;96750;;;-1.1;66.5
68891;BME280;55932;48.702;8.884;2023-02-28T09:15:36;96760;;;-0.8;66.5
68891;BME280;55932;48.702;8.884;2023-02-28T09:18:06;96750;;;-0.8;66.5
68891;BME280;55932;48.702;8.884;2023-02-28T09:20:37;96760;;;-0.8;66.5
68891;BME280;55932;48.702;8.884;2023-02-28T09:23:08;96760;;;-0.8;66.5
68891;BME280;55932;48.702;8.884;2023-02-28T09:25:46;96760;;;-0.8;66.5
68891;BME280;55932;48.702;8.884;2023-02-28T09:28:16;96760;;;-0.7;66.5
68891;BME280;55932;48.702;8.884;2023-02-28T09:33:11;96750;;;-0.5;66
68891;BME280;55932;48.702;8.884;2023-02-28T09:35:42;96750;;;-0.4;66
68891;BME280;55932;48.702;8.884;2023-02-28T09:43:15;96760;;;-0.4;66
68891;BME280;55932;48.702;8.884;2023-02-28T09:45:47;96760;;;-0.3;66
68891;BME280;55932;48.702;8.884;2023-02-28T09:48:16;96770;;;-0.2;66
68891;BME280;55932;48.702;8.884;2023-02-28T09:50:48;96760;;;-0.3;66
68891;BME280;55932;48.702;8.884;2023-02-28T09:53:19;96760;;;-0.2;66
68891;BME280;55932;48.702;8.884;2023-02-28T09:55:56;96770;;;-0.2;66
68891;BME280;55932;48.702;8.884;2023-02-28T09:58:28;96770;;;-0.1;66
68891;BME280;55932;48.702;8.884;2023-02-28T10:03:25;96770;;;0;66
68891;BME280;55932;48.702;8.884;2023-02-28T10:08:25;96770;;;0;66
68891;BME280;55932;48.702;8.884;2023-02-28T10:15:58;96770;;;0.2;66
68891;BME280;55932;48.702;8.884;2023-02-28T10:18:27;96780;;;0.1;66
68891;BME280;55932;48.702;8.884;2023-02-28T10:20:56;96790;;;0.1;66
68891;BME280;55932;48.702;8.884;2023-02-28T10:23:28;96790;;;0.1;66
68891;BME280;55932;48.702;8.884;2023-02-28T10:26:00;96790;;;0.2;66
68891;BME280;55932;48.702;8.884;2023-02-28T10:31:05;96790;;;0.4;66
68891;BME280;55932;48.702;8.884;2023-02-28T10:33:36;96790;;;0.4;66
68891;BME280;55932;48.702;8.884;2023-02-28T10:36:08;96780;;;0.5;66
68891;BME280;55932;48.702;8.884;2023-02-28T10:38:38;96780;;;0.8;66
68891;BME280;55932;48.702;8.884;2023-02-28T10:46:22;96780;;;1;65.5
68891;BME280;55932;48.702;8.884;2023-02-28T10:49:01;96790;;;1;65.5
68891;BME280;55932;48.702;8.884;2023-02-28T10:51:17;96790;;;1.1;65.5
68891;BME280;55932;48.702;8.884;2023-02-28T10:56:15;96780;;;1.2;65.5
68891;BME280;55932;48.702;8.884;2023-02-28T10:59:44;96780;;;1.3;65.5
68891;BME280;55932;48.702;8.884;2023-02-28T11:01:13;96780;;;1.3;65.5
68891;BME280;55932;48.702;8.884;2023-02-28T11:11:08;96780;;;1.8;65.5
68891;BME280;55932;48.702;8.884;2023-02-28T11:16:11;96790;;;2.2;65
68891;BME280;55932;48.702;8.884;2023-02-28T11:18:42;96790;;;2.3;65
68891;BME280;55932;48.702;8.884;2023-02-28T11:26:12;96790;;;2.5;65.5
68891;BME280;55932;48.702;8.884;2023-02-28T11:34:25;96790;;;2.7;65.5
68891;BME280;55932;48.702;8.884;2023-02-28T11:36:40;96790;;;2.8;65.5
68891;BME280;55932;48.702;8.884;2023-02-28T11:41:28;96780;;;3.2;65.5
68891;BME280;55932;48.702;8.884;2023-02-28T11:48:58;96780;;;3.1;66.5
68891;BME280;55932;48.702;8.884;2023-02-28T11:51:22;96780;;;3.5;66.5
68891;BME280;55932;48.702;8.884;2023-02-28T12:02:26;96770;;;4.1;67
68891;BME280;55932;48.702;8.884;2023-02-28T12:04:11;96770;;;3.8;67
68891;BME280;55932;48.702;8.884;2023-02-28T12:06:32;96760;;;3.4;66.5
68891;BME280;55932;48.702;8.884;2023-02-28T12:09:12;96760;;;3.3;67.5
68891;BME280;55932;48.702;8.884;2023-02-28T12:14:21;96750;;;5.8;66
68891;BME280;55932;48.702;8.884;2023-02-28T12:16:38;96750;;;6.2;66
68891;BME280;55932;48.702;8.884;2023-02-28T12:19:13;96760;;;5.3;66
68891;BME280;55932;48.702;8.884;2023-02-28T12:21:45;96760;;;4.5;66
68891;BME280;55932;48.702;8.884;2023-02-28T12:26:50;96760;;;3.2;66.5
68891;BME280;55932;48.702;8.884;2023-02-28T12:29:28;96760;;;3.7;68
68891;BME280;55932;48.702;8.884;2023-02-28T12:31:46;96750;;;5.2;67.5
68891;BME280;55932;48.702;8.884;2023-02-28T12:36:38;96740;;;7.5;65
68891;BME280;55932;48.702;8.884;2023-02-28T12:39:11;96740;;;7.9;65
68891;BME280;55932;48.702;8.884;2023-02-28T12:41:41;96740;;;7.7;65
68891;BME280;55932;48.702;8.884;2023-02-28T12:49:08;96720;;;8.2;65
68891;BME280;55932;48.702;8.884;2023-02-28T12:51:36;96720;;;8.8;65
68891;BME280;55932;48.702;8.884;2023-02-28T12:56:41;96710;;;8.6;65
68891;BME280;55932;48.702;8.884;2023-02-28T13:04:19;96710;;;9.4;64.5
68891;BME280;55932;48.702;8.884;2023-02-28T13:06:48;96710;;;9.2;65
68891;BME280;55932;48.702;8.884;2023-02-28T13:09:12;96710;;;8.2;64.5
68891;BME280;55932;48.702;8.884;2023-02-28T13:11:44;96720;;;5.9;64
68891;BME280;55932;48.702;8.884;2023-02-28T13:14:19;96720;;;5;65.5
68891;BME280;55932;48.702;8.884;2023-02-28T13:17:01;96720;;;6.3;68.5
68891;BME280;55932;48.702;8.884;2023-02-28T13:19:15;96720;;;7.5;66.5
68891;BME280;55932;48.702;8.884;2023-02-28T13:21:46;96710;;;8.5;65.5
68891;BME280;55932;48.702;8.884;2023-02-28T13:29:27;96700;;;9.6;64.5
68891;BME280;55932;48.702;8.884;2023-02-28T13:34:25;96700;;;8.6;65.5
68891;BME280;55932;48.702;8.884;2023-02-28T13:37:30;96700;;;8.5;65
68891;BME280;55932;48.702;8.884;2023-02-28T13:49:25;96710;;;7.9;66.5
68891;BME280;55932;48.702;8.884;2023-02-28T13:59:37;96700;;;8.7;65
68891;BME280;55932;48.702;8.884;2023-02-28T14:02:01;96710;;;8.5;65
68891;BME280;55932;48.702;8.884;2023-02-28T14:04:35;96710;;;8.7;65.5
68891;BME280;55932;48.702;8.884;2023-02-28T14:07:05;96710;;;8.7;65.5
68891;BME280;55932;48.702;8.884;2023-02-28T14:17:13;96700;;;9;65
68891;BME280;55932;48.702;8.884;2023-02-28T14:19:41;96700;;;9.4;64
68891;BME280;55932;48.702;8.884;2023-02-28T14:27:11;96700;;;9.3;64
68891;BME280;55932;48.702;8.884;2023-02-28T14:30:43;96690;;;9;64.5
68891;BME280;55932;48.702;8.884;2023-02-28T14:32:27;96700;;;8.8;64.5
68891;BME280;55932;48.702;8.884;2023-02-28T14:37:10;96710;;;7.8;64.5
68891;BME280;55932;48.702;8.884;2023-02-28T14:44:41;96710;;;7.5;65
68891;BME280;55932;48.702;8.884;2023-02-28T14:50:17;96710;;;7;65.5
68891;BME280;55932;48.702;8.884;2023-02-28T14:52:27;96710;;;7.3;65.5
68891;BME280;55932;48.702;8.884;2023-02-28T14:54:58;96710;;;7.5;65
68891;BME280;55932;48.702;8.884;2023-02-28T14:57:28;96720;;;7.4;65
68891;BME280;55932;48.702;8.884;2023-02-28T15:02:22;96720;;;7.3;64.5
68891;BME280;55932;48.702;8.884;2023-02-28T15:04:53;96720;;;7.2;65
68891;BME280;55932;48.702;8.884;2023-02-28T15:07:22;96720;;;7.2;64.5
68891;BME280;55932;48.702;8.884;2023-02-28T15:10:31;96720;;;7.2;64
68891;BME280;55932;48.702;8.884;2023-02-28T15:15:15;96720;;;6.8;63
68891;BME280;55932;48.702;8.884;2023-02-28T15:17:45;96710;;;6.9;62.5
68891;BME280;55932;48.702;8.884;2023-02-28T15:22:28;96710;;;6.5;62.5
68891;BME280;55932;48.702;8.884;2023-02-28T15:24:57;96710;;;6.2;62.5
68891;BME280;55932;48.702;8.884;2023-02-28T15:27:28;96720;;;5.9;62.5
68891;BME280;55932;48.702;8.884;2023-02-28T15:30:00;96710;;;5.5;63
68891;BME280;55932;48.702;8.884;2023-02-28T15:32:30;96720;;;5.3;63
68891;BME280;55932;48.702;8.884;2023-02-28T15:35:37;96710;;;5.2;63.5
68891;BME280;55932;48.702;8.884;2023-02-28T15:37:47;96720;;;5.2;63.5
68891;BME280;55932;48.702;8.884;2023-02-28T15:40:16;96720;;;5;63.5
68891;BME280;55932;48.702;8.884;2023-02-28T15:42:30;96720;;;5;63.5
68891;BME280;55932;48.702;8.884;2023-02-28T15:45:01;96720;;;4.7;63.5
68891;BME280;55932;48.702;8.884;2023-02-28T15:47:40;96720;;;4.5;63.5
68891;BME280;55932;48.702;8.884;2023-02-28T15:49:58;96720;;;4.3;64
68891;BME280;55932;48.702;8.884;2023-02-28T15:52:38;96720;;;4.3;64
68891;BME280;55932;48.702;8.884;2023-02-28T15:54:58;96720;;;4.2;64
68891;BME280;55932;48.702;8.884;2023-02-28T16:05:12;96730;;;4.1;64
68891;BME280;55932;48.702;8.884;2023-02-28T16:15:31;96730;;;3.8;64.5
68891;BME280;55932;48.702;8.884;2023-02-28T16:18:00;96740;;;3.8;64.5
68891;BME280;55932;48.702;8.884;2023-02-28T16:20:18;96730;;;3.7;64.5
68891;BME280;55932;48.702;8.884;2023-02-28T16:22:41;96740;;;3.7;64.5
68891;BME280;55932;48.702;8.884;2023-02-28T16:25:13;96730;;;3.6;64.5
68891;BME280;55932;48.702;8.884;2023-02-28T16:27:43;96740;;;3.5;65
68891;BME280;55932;48.702;8.884;2023-02-28T16:30:17;96740;;;3.4;65
68891;BME280;55932;48.702;8.884;2023-02-28T16:32:45;96740;;;3.3;65
68891;BME280;55932;48.702;8.884;2023-02-28T16:35:16;96750;;;3.2;65
68891;BME280;55932;48.702;8.884;2023-02-28T16:37:47;96740;;;3.1;65
68891;BME280;55932;48.702;8.884;2023-02-28T16:42:49;96740;;;2.9;65
68891;BME280;55932;48.702;8.884;2023-02-28T16:45:22;96740;;;2.8;65
68891;BME280;55932;48.702;8.884;2023-02-28T16:50:35;96750;;;2.6;65.5
68891;BME280;55932;48.702;8.884;2023-02-28T16:52:59;96750;;;2.5;65.5
68891;BME280;55932;48.702;8.884;2023-02-28T16:55:29;96760;;;2.4;65.5
68891;BME280;55932;48.702;8.884;2023-02-28T16:58:00;96760;;;2.3;65.5
68891;BME280;55932;48.702;8.884;2023-02-28T17:02:53;96770;;;2.1;65.5
68891;BME280;55932;48.702;8.884;2023-02-28T17:05:24;96770;;;2;65.5
68891;BME280;55932;48.702;8.884;2023-02-28T17:07:55;96770;;;1.9;65.5
68891;BME280;55932;48.702;8.884;2023-02-28T17:13:02;96780;;;1.7;65.5
68891;BME280;55932;48.702;8.884;2023-02-28T17:18:18;96770;;;1.7;65.5
68891;BME280;55932;48.702;8.884;2023-02-28T17:20:34;96780;;;1.6;65.5
68891;BME280;55932;48.702;8.884;2023-02-28T17:25:28;96790;;;1.5;65.5
68891;BME280;55932;48.702;8.884;2023-02-28T17:27:59;96800;;;1.4;66
68891;BME280;55932;48.702;8.884;2023-02-28T17:30:31;96800;;;1.4;65.5
68891;BME280;55932;48.702;8.884;2023-02-28T17:33:01;96800;;;1.3;65.5
68891;BME280;55932;48.702;8.884;2023-02-28T17:35:32;96800;;;1.3;66
68891;BME280;55932;48.702;8.884;2023-02-28T17:38:14;96800;;;1.1;66
68891;BME280;55932;48.702;8.884;2023-02-28T17:40:39;96800;;;1.1;66
68891;BME280;55932;48.702;8.884;2023-02-28T17:45:33;96810;;;1.1;66
68891;BME280;55932;48.702;8.884;2023-02-28T17:48:04;96810;;;1.1;66
68891;BME280;55932;48.702;8.884;2023-02-28T17:50:35;96810;;;1;66
68891;BME280;55932;48.702;8.884;2023-02-28T17:53:06;96830;;;0.9;66
68891;BME280;55932;48.702;8.884;2023-02-28T17:58:20;96830;;;0.7;66
68891;BME280;55932;48.702;8.884;2023-02-28T18:00:57;96820;;;0.7;66
68891;BME280;55932;48.702;8.884;2023-02-28T18:03:14;96820;;;0.6;66
68891;BME280;55932;48.702;8.884;2023-02-28T18:05:44;96820;;;0.5;66
68891;BME280;55932;48.702;8.884;2023-02-28T18:08:14;96830;;;0.5;66
68891;BME280;55932;48.702;8.884;2023-02-28T18:13:08;96830;;;0.3;66
68891;BME280;55932;48.702;8.884;2023-02-28T18:15:40;96830;;;0.3;66
68891;BME280;55932;48.702;8.884;2023-02-28T18:18:16;96820;;;0.2;66
68891;BME280;55932;48.702;8.884;2023-02-28T18:26:05;96830;;;0.2;66
68891;BME280;55932;48.702;8.884;2023-02-28T18:28:19;96830;;;0.2;66
68891;BME280;55932;48.702;8.884;2023-02-28T18:33:14;96820;;;0;66
68891;BME280;55932;48.702;8.884;2023-02-28T18:35:45;96820;;;0;66
68891;BME280;55932;48.702;8.884;2023-02-28T18:38:17;96820;;;0;66
68891;BME280;55932;48.702;8.884;2023-02-28T18:40:40;96820;;;0;66
68891;BME280;55932;48.702;8.884;2023-02-28T18:48:12;96830;;;-0.1;66
68891;BME280;55932;48.702;8.884;2023-02-28T18:53:13;96830;;;-0.2;66
68891;BME280;55932;48.702;8.884;2023-02-28T18:58:20;96820;;;-0.3;66
68891;BME280;55932;48.702;8.884;2023-02-28T19:00:51;96820;;;-0.4;66.5
68891;BME280;55932;48.702;8.884;2023-02-28T19:05:46;96820;;;-0.5;66.5
68891;BME280;55932;48.702;8.884;2023-02-28T19:08:17;96810;;;-0.6;66.5
68891;BME280;55932;48.702;8.884;2023-02-28T19:15:50;96820;;;-0.9;66.5
68891;BME280;55932;48.702;8.884;2023-02-28T19:18:20;96820;;;-0.9;66.5
68891;BME280;55932;48.702;8.884;2023-02-28T19:20:51;96820;;;-1.1;66.5
68891;BME280;55932;48.702;8.884;2023-02-28T19:23:22;96830;;;-1;66.5
68891;BME280;55932;48.702;8.884;2023-02-28T19:25:59;96820;;;-1;66.5
68891;BME280;55932;48.702;8.884;2023-02-28T19:28:30;96830;;;-1;66.5
68891;BME280;55932;48.702;8.884;2023-02-28T19:31:01;96820;;;-1;66
68891;BME280;55932;48.702;8.884;2023-02-28T19:33:25;96830;;;-1;66
68891;BME280;55932;48.702;8.884;2023-02-28T19:35:59;96830;;;-1;66
68891;BME280;55932;48.702;8.884;2023-02-28T19:43:28;96820;;;-1.3;66.5
68891;BME280;55932;48.702;8.884;2023-02-28T19:45:59;96830;;;-1.5;66.5
68891;BME280;55932;48.702;8.884;2023-02-28T19:48:30;96830;;;-1.5;66.5
68891;BME280;55932;48.702;8.884;2023-02-28T19:51:01;96830;;;-1.5;66.5
68891;BME280;55932;48.702;8.884;2023-02-28T19:53:38;96830;;;-1.4;66.5
68891;BME280;55932;48.702;8.884;2023-02-28T19:56:09;96830;;;-1.5;66.5
68891;BME280;55932;48.702;8.884;2023-02-28T19:58:40;96840;;;-1.5;66.5
68891;BME280;55932;48.702;8.884;2023-02-28T20:01:12;96830;;;-1.5;66.5
68891;BME280;55932;48.702;8.884;2023-02-28T20:03:35;96830;;;-1.4;66
68891;BME280;55932;48.702;8.884;2023-02-28T20:08:36;96820;;;-1.4;66
68891;BME280;55932;48.702;8.884;2023-02-28T20:11:08;96830;;;-1.4;66
68891;BME280;55932;48.702;8.884;2023-02-28T20:13:38;96820;;;-1.4;66
68891;BME280;55932;48.702;8.884;2023-02-28T20:16:09;96830;;;-1.4;66
68891;BME280;55932;48.702;8.884;2023-02-28T20:18:39;96830;;;-1.5;66
68891;BME280;55932;48.702;8.884;2023-02-28T20:23:47;96820;;;-1.5;66
68891;BME280;55932;48.702;8.884;2023-02-28T20:26:18;96820;;;-1.6;66
68891;BME280;55932;48.702;8.884;2023-02-28T20:28:49;96820;;;-1.7;66.5
68891;BME280;55932;48.702;8.884;2023-02-28T20:31:22;96820;;;-1.6;66
68891;BME280;55932;48.702;8.884;2023-02-28T20:33:57;96820;;;-1.6;66
68891;BME280;55932;48.702;8.884;2023-02-28T20:36:28;96830;;;-1.7;66
68891;BME280;55932;48.702;8.884;2023-02-28T20:46:32;96820;;;-1.7;66
68891;BME280;55932;48.702;8.884;2023-02-28T20:49:03;96820;;;-1.8;66
68891;BME280;55932;48.702;8.884;2023-02-28T20:51:32;96810;;;-1.9;66.5
68891;BME280;55932;48.702;8.884;2023-02-28T20:56:27;96820;;;-2;66.5
68891;BME280;55932;48.702;8.884;2023-02-28T20:58:57;96810;;;-2;66.5
68891;BME280;55932;48.702;8.884;2023-02-28T21:01:29;96810;;;-2;66.5
68891;BME280;55932;48.702;8.884;2023-02-28T21:04:06;96820;;;-2.1;66.5
68891;BME280;55932;48.702;8.884;2023-02-28T21:11:52;96810;;;-2.2;66.5